AirNav   ProFlight Series 2 Aviation Headset
 
 274 users online  

PS95 Mazzuca Heliport
Pottsville, Pennsylvania, USA

GOING TO POTTSVILLE?


FAA INFORMATION EFFECTIVE 18 JUNE 2020

Location

FAA Identifier: PS95
Lat/Long: 40-41-10.3230N 076-12-36.7990W
40-41.172050N 076-12.613317W
40.6862008,-76.2102219
(estimated)
Elevation: 810 ft. / 247 m (estimated)
Variation: 11W (1985)
From city: 2 miles SE of POTTSVILLE, PA
Time zone: UTC -4 (UTC -5 during Standard Time)
Zip code: 17901

Heliport Operations

Heliport use: Private use. Permission required prior to landing
Activation date: 07/1986
Control tower: no
ARTCC: NEW YORK CENTER
FSS: WILLIAMSPORT FLIGHT SERVICE STATION
Attendance: UNATNDD
Wind indicator: yes
Segmented circle: no

Heliport Communications

WX AWOS-3 at ZER (8 nm W): 127.575 (570-544-2778)
WX AWOS-3 at N79 (18 nm NW): 119.175 (570-672-0389)

Nearby radio navigation aids

VOR radial/distance  VOR name  Freq  Var
RAVr077/19.4RAVINE VORTAC114.6011W
ETXr294/24.8EAST TEXAS VOR/DME110.2009W
MIPr143/28.9MILTON VORTAC109.2009W
SEGr110/31.3SELINSGROVE VOR/DME110.4008W
LRPr015/34.2LANCASTER VOR/DME117.3009W
FJCr276/34.4ALLENTOWN VORTAC117.5010W

 
NDB name  Hdg/Dist  Freq  Var  ID
BELLGROVE056/21.732810WBZJ -... --.. .---

Heliport Services

Runway Information

Helipad H1

Dimensions: 25 x 25 ft. / 8 x 8 m
Surface: asphalt
Operational restrictions: FATO 60 FT SQUARE
Traffic pattern: leftleft

Heliport Ownership and Management from official FAA records

Ownership: Privately-owned
Owner: JOSEPH MAZZUCA
510 N. 14TH ST , P.O. BOX 443
POTTSVILLE, PA 17901
Phone (570) 527-0579
ALTERNATE PHONE 610-969-6195.
Manager: JOSEPH MAZZUCA
510 N. 14TH ST, P.O. BOX 443
POTTSVILLE, PA 17901
Phone (570) 527-0579

Heliport Operational Statistics

Aircraft based on the field: 1
Helicopters: 1
    

Additional Remarks

FOR CD CTC READING ATCT AT 610-478-9562; WHEN CLSD CTC HARRISBURG APCH AT 800-932-0712.

Instrument Procedures

There are no published instrument procedures at PS95.

Some nearby airports with instrument procedures:

KZER - Schuylkill County/Joe Zerbey Airport (8 nm W)
74N - Bendigo Airport (18 nm SW)
N79 - Northumberland County Airport (18 nm NW)
KHZL - Hazleton Regional Airport (21 nm NE)
9D4 - Deck Airport (21 nm S)
 
Loc | Ops | Rwys | IFR | FBO | Links
Com | Nav | Svcs | Stats | Notes
Area around PS95 (Mazzuca Heliport)
 
Road maps at: MapQuest Bing Google
 
Aerial photo
No photo
 
Sectional chart

 
Airport distance calculator
Flying to Mazzuca Heliport? Find the distance to fly.

From to PS95

Sunrise and sunset
Times for 15-Jul-2020
 Local
(UTC-4)
 Zulu
(UTC)
Morning civil twilight05:1609:16
Sunrise05:4809:48
Sunset20:3300:33
Evening civil twilight21:0601:06

Current date and time
Zulu (UTC)  15-Jul-2020 08:33:54
Local (UTC-4)  15-Jul-2020 04:33:54
 
METAR
KHZL 
21nm NE 
150817Z AUTO 00000KT 10SM CLR 14/13 A3019 RMK AO2
K22N 
22nm E 
150824Z AUTO 00000KT 10SM CLR 15/15 A3015 RMK AO2
KRDG 
22nm SE 
150754Z AUTO 00000KT 10SM CLR 19/18 A3010 RMK AO2 SLP193 T01940178
KMUI 
23nm SW 
150756Z AUTO 00000KT 10SM CLR 17/16 A3011 RMK AO2 SLP196 T01730160
KSEG 
31nm W 
150753Z AUTO 00000KT 10SM CLR 16/16 A3013 RMK AO2 SLP198 T01610156
KXLL 
34nm E 
150815Z AUTO 00000KT 10SM CLR 18/17 A3013 RMK AO2
KLNS 
34nm S 
150753Z AUTO 00000KT 10SM CLR 19/17 A3010 RMK AO2 SLP189 T01940167
KABE 
35nm E 
150751Z 00000KT 10SM CLR 19/16 A3011 RMK AO2 SLP193 T01890161
KMDT 
39nm SW 
150756Z 36003KT 10SM FEW250 21/16 A3010 RMK AO2 SLP189 T02060161
KPTW 
41nm SE 
150754Z AUTO 00000KT 9SM CLR 17/17 A3012 RMK AO2 SLP194 T01720167
TAF
KRDG 
22nm SE 
150520Z 1506/1606 VRB03KT P6SM FEW100 FM151700 15005KT P6SM SCT050
KMUI 
23nm SW 
141900Z 1419/1601 VRB06KT 9999 SCT050 QNH2999INS BECMG 1515/1516 VRB06KT 9999 BKN050 QNH2999INS TX29/1421Z TN19/1511Z LAST NO AMDS AFT 1505 NEXT 1511
NOTAMs
Click for the latest NOTAMs
NOTAMs are issued by the DoD/FAA and will open in a separate window not controlled by AirNav.

 

 
 

Would you like to see your business listed on this page?

 If your business provides an interesting product or service to pilots, flight crews, aircraft, or users of the Mazzuca Heliport, you should consider listing it here.  To start the listing process, click on the button below
 
Add a business
 

Other Pages about Mazzuca Heliport

Update a link
 
Copyright © AirNav, LLC. All rights reserved. Privacy Policy  Contact